sensor_id;sensor_type;location;lat;lon;timestamp;P1;durP1;ratioP1;P2;durP2;ratioP2
22665;SDS011;11499;49.486;11.104;2023-05-16T00:00:57;6.00;;;5.50;;
22665;SDS011;11499;49.486;11.104;2023-05-16T00:03:23;6.80;;;6.00;;
22665;SDS011;11499;49.486;11.104;2023-05-16T00:05:49;7.07;;;5.70;;
22665;SDS011;11499;49.486;11.104;2023-05-16T00:08:15;6.30;;;5.70;;
22665;SDS011;11499;49.486;11.104;2023-05-16T00:13:26;6.50;;;6.00;;
22665;SDS011;11499;49.486;11.104;2023-05-16T00:15:56;6.20;;;5.70;;
22665;SDS011;11499;49.486;11.104;2023-05-16T00:18:26;6.50;;;6.00;;
22665;SDS011;11499;49.486;11.104;2023-05-16T00:20:52;6.37;;;5.87;;
22665;SDS011;11499;49.486;11.104;2023-05-16T00:23:18;6.93;;;6.23;;
22665;SDS011;11499;49.486;11.104;2023-05-16T00:25:44;9.20;;;6.20;;
22665;SDS011;11499;49.486;11.104;2023-05-16T00:28:11;6.97;;;6.27;;
22665;SDS011;11499;49.486;11.104;2023-05-16T00:30:36;6.77;;;6.17;;
22665;SDS011;11499;49.486;11.104;2023-05-16T00:33:02;6.27;;;5.77;;
22665;SDS011;11499;49.486;11.104;2023-05-16T00:35:27;6.07;;;5.57;;
22665;SDS011;11499;49.486;11.104;2023-05-16T00:40:54;6.43;;;5.60;;
22665;SDS011;11499;49.486;11.104;2023-05-16T00:43:20;5.40;;;5.00;;
22665;SDS011;11499;49.486;11.104;2023-05-16T00:45:45;8.47;;;5.83;;
22665;SDS011;11499;49.486;11.104;2023-05-16T00:48:13;6.63;;;5.93;;
22665;SDS011;11499;49.486;11.104;2023-05-16T00:50:40;6.80;;;5.63;;
22665;SDS011;11499;49.486;11.104;2023-05-16T00:53:06;6.67;;;6.10;;
22665;SDS011;11499;49.486;11.104;2023-05-16T00:55:31;6.40;;;5.90;;
22665;SDS011;11499;49.486;11.104;2023-05-16T00:57:57;6.97;;;6.37;;
22665;SDS011;11499;49.486;11.104;2023-05-16T01:00:23;7.00;;;6.30;;
22665;SDS011;11499;49.486;11.104;2023-05-16T01:02:50;7.00;;;6.40;;
22665;SDS011;11499;49.486;11.104;2023-05-16T01:07:02;9.13;;;8.23;;
22665;SDS011;11499;49.486;11.104;2023-05-16T01:09:27;7.37;;;6.77;;
22665;SDS011;11499;49.486;11.104;2023-05-16T01:12:13;7.60;;;6.90;;
22665;SDS011;11499;49.486;11.104;2023-05-16T01:28:14;6.30;;;5.70;;
22665;SDS011;11499;49.486;11.104;2023-05-16T01:33:54;6.90;;;6.33;;
22665;SDS011;11499;49.486;11.104;2023-05-16T01:44:36;7.10;;;5.73;;
22665;SDS011;11499;49.486;11.104;2023-05-16T01:47:09;6.37;;;5.77;;
22665;SDS011;11499;49.486;11.104;2023-05-16T01:49:42;6.07;;;5.33;;
22665;SDS011;11499;49.486;11.104;2023-05-16T01:52:18;6.70;;;6.10;;
22665;SDS011;11499;49.486;11.104;2023-05-16T01:54:54;6.40;;;5.90;;
22665;SDS011;11499;49.486;11.104;2023-05-16T01:57:23;7.27;;;6.30;;
22665;SDS011;11499;49.486;11.104;2023-05-16T02:01:52;7.10;;;6.40;;
22665;SDS011;11499;49.486;11.104;2023-05-16T02:04:19;6.57;;;5.97;;
22665;SDS011;11499;49.486;11.104;2023-05-16T02:06:44;8.60;;;6.73;;
22665;SDS011;11499;49.486;11.104;2023-05-16T02:09:10;7.43;;;6.73;;
22665;SDS011;11499;49.486;11.104;2023-05-16T02:11:35;7.20;;;6.50;;
22665;SDS011;11499;49.486;11.104;2023-05-16T02:14:01;7.33;;;6.63;;
22665;SDS011;11499;49.486;11.104;2023-05-16T02:16:28;7.80;;;7.10;;
22665;SDS011;11499;49.486;11.104;2023-05-16T02:18:54;9.40;;;7.57;;
22665;SDS011;11499;49.486;11.104;2023-05-16T02:21:20;7.10;;;6.40;;
22665;SDS011;11499;49.486;11.104;2023-05-16T02:23:46;7.60;;;6.90;;
22665;SDS011;11499;49.486;11.104;2023-05-16T02:28:47;6.17;;;5.57;;
22665;SDS011;11499;49.486;11.104;2023-05-16T02:31:24;6.70;;;6.20;;
22665;SDS011;11499;49.486;11.104;2023-05-16T02:33:54;7.07;;;6.40;;
22665;SDS011;11499;49.486;11.104;2023-05-16T02:36:20;8.47;;;7.67;;
22665;SDS011;11499;49.486;11.104;2023-05-16T02:38:46;9.73;;;6.70;;
22665;SDS011;11499;49.486;11.104;2023-05-16T02:41:11;8.73;;;7.93;;
22665;SDS011;11499;49.486;11.104;2023-05-16T02:43:37;8.30;;;6.50;;
22665;SDS011;11499;49.486;11.104;2023-05-16T02:46:18;6.83;;;6.33;;
22665;SDS011;11499;49.486;11.104;2023-05-16T02:48:45;7.47;;;6.70;;
22665;SDS011;11499;49.486;11.104;2023-05-16T02:51:10;7.60;;;6.90;;
22665;SDS011;11499;49.486;11.104;2023-05-16T02:56:02;7.83;;;7.13;;
22665;SDS011;11499;49.486;11.104;2023-05-16T02:58:30;8.77;;;8.07;;
22665;SDS011;11499;49.486;11.104;2023-05-16T03:00:56;9.53;;;8.47;;
22665;SDS011;11499;49.486;11.104;2023-05-16T03:03:22;6.70;;;6.20;;
22665;SDS011;11499;49.486;11.104;2023-05-16T03:05:47;7.20;;;6.60;;
22665;SDS011;11499;49.486;11.104;2023-05-16T03:08:13;6.93;;;6.23;;
22665;SDS011;11499;49.486;11.104;2023-05-16T03:10:39;6.97;;;6.37;;
22665;SDS011;11499;49.486;11.104;2023-05-16T03:13:04;7.00;;;6.30;;
22665;SDS011;11499;49.486;11.104;2023-05-16T03:15:30;7.50;;;6.80;;
22665;SDS011;11499;49.486;11.104;2023-05-16T03:17:55;6.87;;;6.23;;
22665;SDS011;11499;49.486;11.104;2023-05-16T03:23:20;6.50;;;5.90;;
22665;SDS011;11499;49.486;11.104;2023-05-16T03:25:46;6.50;;;6.00;;
22665;SDS011;11499;49.486;11.104;2023-05-16T03:28:12;6.93;;;5.67;;
22665;SDS011;11499;49.486;11.104;2023-05-16T03:30:37;6.50;;;5.87;;
22665;SDS011;11499;49.486;11.104;2023-05-16T03:33:03;7.50;;;5.90;;
22665;SDS011;11499;49.486;11.104;2023-05-16T03:35:29;6.70;;;6.10;;
22665;SDS011;11499;49.486;11.104;2023-05-16T03:37:55;6.30;;;5.80;;
22665;SDS011;11499;49.486;11.104;2023-05-16T03:40:21;7.20;;;6.50;;
22665;SDS011;11499;49.486;11.104;2023-05-16T03:42:47;5.97;;;5.47;;
22665;SDS011;11499;49.486;11.104;2023-05-16T03:45:12;6.33;;;5.80;;
22665;SDS011;11499;49.486;11.104;2023-05-16T03:50:22;6.63;;;6.03;;
22665;SDS011;11499;49.486;11.104;2023-05-16T03:52:48;8.37;;;6.03;;
22665;SDS011;11499;49.486;11.104;2023-05-16T03:55:14;6.23;;;5.67;;
22665;SDS011;11499;49.486;11.104;2023-05-16T03:57:39;6.23;;;5.63;;
22665;SDS011;11499;49.486;11.104;2023-05-16T04:00:08;6.00;;;5.50;;
22665;SDS011;11499;49.486;11.104;2023-05-16T04:02:35;7.10;;;6.40;;
22665;SDS011;11499;49.486;11.104;2023-05-16T04:05:00;7.33;;;6.63;;
22665;SDS011;11499;49.486;11.104;2023-05-16T04:07:25;8.30;;;7.40;;
22665;SDS011;11499;49.486;11.104;2023-05-16T04:09:51;10.57;;;9.50;;
22665;SDS011;11499;49.486;11.104;2023-05-16T04:12:17;11.07;;;9.97;;
22665;SDS011;11499;49.486;11.104;2023-05-16T04:16:22;12.40;;;11.10;;
22665;SDS011;11499;49.486;11.104;2023-05-16T04:18:47;13.80;;;12.40;;
22665;SDS011;11499;49.486;11.104;2023-05-16T04:21:13;14.03;;;12.53;;
22665;SDS011;11499;49.486;11.104;2023-05-16T04:23:39;16.70;;;14.67;;
22665;SDS011;11499;49.486;11.104;2023-05-16T04:26:05;14.47;;;13.10;;
22665;SDS011;11499;49.486;11.104;2023-05-16T04:28:31;10.47;;;9.43;;
22665;SDS011;11499;49.486;11.104;2023-05-16T04:30:56;10.03;;;9.13;;
22665;SDS011;11499;49.486;11.104;2023-05-16T04:33:22;10.50;;;9.43;;
22665;SDS011;11499;49.486;11.104;2023-05-16T04:35:47;11.77;;;9.90;;
22665;SDS011;11499;49.486;11.104;2023-05-16T04:38:13;11.07;;;10.10;;
22665;SDS011;11499;49.486;11.104;2023-05-16T04:43:22;11.20;;;10.30;;
22665;SDS011;11499;49.486;11.104;2023-05-16T04:45:48;11.10;;;10.10;;
22665;SDS011;11499;49.486;11.104;2023-05-16T04:48:14;11.33;;;10.23;;
22665;SDS011;11499;49.486;11.104;2023-05-16T04:50:40;10.50;;;9.60;;
22665;SDS011;11499;49.486;11.104;2023-05-16T04:53:06;10.50;;;9.60;;
22665;SDS011;11499;49.486;11.104;2023-05-16T04:55:31;11.50;;;10.17;;
22665;SDS011;11499;49.486;11.104;2023-05-16T04:57:57;10.43;;;9.60;;
22665;SDS011;11499;49.486;11.104;2023-05-16T05:00:23;10.17;;;9.23;;
22665;SDS011;11499;49.486;11.104;2023-05-16T05:02:48;10.13;;;9.13;;
22665;SDS011;11499;49.486;11.104;2023-05-16T05:08:10;9.33;;;8.43;;
22665;SDS011;11499;49.486;11.104;2023-05-16T05:10:36;9.90;;;9.10;;
22665;SDS011;11499;49.486;11.104;2023-05-16T05:13:01;11.17;;;9.20;;
22665;SDS011;11499;49.486;11.104;2023-05-16T05:15:26;10.37;;;9.50;;
22665;SDS011;11499;49.486;11.104;2023-05-16T05:17:52;9.77;;;8.97;;
22665;SDS011;11499;49.486;11.104;2023-05-16T05:20:18;9.93;;;8.93;;
22665;SDS011;11499;49.486;11.104;2023-05-16T05:22:43;9.13;;;8.43;;
22665;SDS011;11499;49.486;11.104;2023-05-16T05:25:09;9.47;;;8.67;;
22665;SDS011;11499;49.486;11.104;2023-05-16T05:27:35;9.60;;;8.80;;
22665;SDS011;11499;49.486;11.104;2023-05-16T05:30:00;9.63;;;8.63;;
22665;SDS011;11499;49.486;11.104;2023-05-16T05:35:10;9.20;;;8.43;;
22665;SDS011;11499;49.486;11.104;2023-05-16T05:37:35;9.60;;;8.80;;
22665;SDS011;11499;49.486;11.104;2023-05-16T05:40:01;9.67;;;8.60;;
22665;SDS011;11499;49.486;11.104;2023-05-16T05:42:27;9.40;;;8.33;;
22665;SDS011;11499;49.486;11.104;2023-05-16T05:44:52;9.43;;;8.57;;
22665;SDS011;11499;49.486;11.104;2023-05-16T05:47:18;9.27;;;8.47;;
22665;SDS011;11499;49.486;11.104;2023-05-16T05:49:43;8.80;;;7.90;;
22665;SDS011;11499;49.486;11.104;2023-05-16T05:52:09;8.10;;;7.40;;
22665;SDS011;11499;49.486;11.104;2023-05-16T05:54:35;8.60;;;7.80;;
22665;SDS011;11499;49.486;11.104;2023-05-16T05:57:00;8.40;;;7.70;;
22665;SDS011;11499;49.486;11.104;2023-05-16T05:59:26;8.67;;;7.97;;
22665;SDS011;11499;49.486;11.104;2023-05-16T06:05:37;7.73;;;7.03;;
22665;SDS011;11499;49.486;11.104;2023-05-16T06:08:03;8.80;;;7.77;;
22665;SDS011;11499;49.486;11.104;2023-05-16T06:10:28;7.87;;;7.17;;
22665;SDS011;11499;49.486;11.104;2023-05-16T06:12:54;8.17;;;7.37;;
22665;SDS011;11499;49.486;11.104;2023-05-16T06:15:19;7.97;;;7.33;;
22665;SDS011;11499;49.486;11.104;2023-05-16T06:17:45;8.80;;;7.83;;
22665;SDS011;11499;49.486;11.104;2023-05-16T06:20:10;7.67;;;7.07;;
22665;SDS011;11499;49.486;11.104;2023-05-16T06:22:36;7.97;;;7.33;;
22665;SDS011;11499;49.486;11.104;2023-05-16T06:25:02;8.17;;;7.37;;
22665;SDS011;11499;49.486;11.104;2023-05-16T06:27:27;8.00;;;7.20;;
22665;SDS011;11499;49.486;11.104;2023-05-16T06:32:19;7.17;;;6.47;;
22665;SDS011;11499;49.486;11.104;2023-05-16T06:34:45;8.23;;;7.10;;
22665;SDS011;11499;49.486;11.104;2023-05-16T06:37:10;7.83;;;6.93;;
22665;SDS011;11499;49.486;11.104;2023-05-16T06:39:36;7.67;;;6.90;;
22665;SDS011;11499;49.486;11.104;2023-05-16T06:42:01;8.27;;;6.77;;
22665;SDS011;11499;49.486;11.104;2023-05-16T06:44:27;7.17;;;6.20;;
22665;SDS011;11499;49.486;11.104;2023-05-16T06:46:52;7.47;;;6.80;;
22665;SDS011;11499;49.486;11.104;2023-05-16T06:49:18;7.00;;;6.30;;
22665;SDS011;11499;49.486;11.104;2023-05-16T06:51:43;6.73;;;6.10;;
22665;SDS011;11499;49.486;11.104;2023-05-16T06:54:09;9.60;;;6.37;;
22665;SDS011;11499;49.486;11.104;2023-05-16T06:58:57;7.30;;;6.50;;
22665;SDS011;11499;49.486;11.104;2023-05-16T07:01:25;6.70;;;6.10;;
22665;SDS011;11499;49.486;11.104;2023-05-16T07:03:51;6.83;;;6.23;;
22665;SDS011;11499;49.486;11.104;2023-05-16T07:06:16;7.07;;;6.37;;
22665;SDS011;11499;49.486;11.104;2023-05-16T07:08:42;10.50;;;6.83;;
22665;SDS011;11499;49.486;11.104;2023-05-16T07:11:07;6.63;;;6.03;;
22665;SDS011;11499;49.486;11.104;2023-05-16T07:13:35;8.17;;;6.10;;
22665;SDS011;11499;49.486;11.104;2023-05-16T07:16:00;7.20;;;6.50;;
22665;SDS011;11499;49.486;11.104;2023-05-16T07:18:26;7.37;;;6.67;;
22665;SDS011;11499;49.486;11.104;2023-05-16T07:23:39;7.37;;;6.63;;
22665;SDS011;11499;49.486;11.104;2023-05-16T07:26:04;7.10;;;6.50;;
22665;SDS011;11499;49.486;11.104;2023-05-16T07:28:30;7.23;;;6.53;;
22665;SDS011;11499;49.486;11.104;2023-05-16T07:30:55;7.53;;;6.83;;
22665;SDS011;11499;49.486;11.104;2023-05-16T07:33:22;6.90;;;6.27;;
22665;SDS011;11499;49.486;11.104;2023-05-16T07:35:48;7.33;;;6.63;;
22665;SDS011;11499;49.486;11.104;2023-05-16T07:38:14;6.93;;;6.20;;
22665;SDS011;11499;49.486;11.104;2023-05-16T07:40:40;7.00;;;6.30;;
22665;SDS011;11499;49.486;11.104;2023-05-16T07:43:05;6.63;;;6.03;;
22665;SDS011;11499;49.486;11.104;2023-05-16T07:45:31;8.23;;;6.50;;
22665;SDS011;11499;49.486;11.104;2023-05-16T07:49:54;7.33;;;5.73;;
22665;SDS011;11499;49.486;11.104;2023-05-16T07:52:19;7.13;;;6.40;;
22665;SDS011;11499;49.486;11.104;2023-05-16T07:54:45;6.87;;;6.27;;
22665;SDS011;11499;49.486;11.104;2023-05-16T07:57:12;7.43;;;6.43;;
22665;SDS011;11499;49.486;11.104;2023-05-16T07:59:41;6.60;;;6.10;;
22665;SDS011;11499;49.486;11.104;2023-05-16T08:02:08;6.97;;;6.30;;
22665;SDS011;11499;49.486;11.104;2023-05-16T08:04:34;7.17;;;6.47;;
22665;SDS011;11499;49.486;11.104;2023-05-16T08:07:00;9.60;;;7.00;;
22665;SDS011;11499;49.486;11.104;2023-05-16T08:09:26;7.60;;;6.93;;
22665;SDS011;11499;49.486;11.104;2023-05-16T08:11:51;6.50;;;6.00;;
22665;SDS011;11499;49.486;11.104;2023-05-16T08:16:18;6.43;;;5.50;;
22665;SDS011;11499;49.486;11.104;2023-05-16T08:18:44;6.13;;;5.40;;
22665;SDS011;11499;49.486;11.104;2023-05-16T08:21:09;8.03;;;5.23;;
22665;SDS011;11499;49.486;11.104;2023-05-16T08:23:35;5.50;;;5.03;;
22665;SDS011;11499;49.486;11.104;2023-05-16T08:26:01;8.50;;;5.57;;
22665;SDS011;11499;49.486;11.104;2023-05-16T08:28:27;6.07;;;5.53;;
22665;SDS011;11499;49.486;11.104;2023-05-16T08:30:53;6.00;;;5.40;;
22665;SDS011;11499;49.486;11.104;2023-05-16T08:33:18;5.63;;;5.13;;
22665;SDS011;11499;49.486;11.104;2023-05-16T08:35:44;7.17;;;5.47;;
22665;SDS011;11499;49.486;11.104;2023-05-16T08:38:10;6.40;;;5.70;;
22665;SDS011;11499;49.486;11.104;2023-05-16T08:42:20;7.38;;;5.72;;
22665;SDS011;11499;49.486;11.104;2023-05-16T08:44:46;5.67;;;5.17;;
22665;SDS011;11499;49.486;11.104;2023-05-16T08:47:13;6.60;;;5.90;;
22665;SDS011;11499;49.486;11.104;2023-05-16T08:49:48;6.68;;;5.60;;
22665;SDS011;11499;49.486;11.104;2023-05-16T08:52:17;8.27;;;5.10;;
22665;SDS011;11499;49.486;11.104;2023-05-16T08:54:44;5.30;;;4.90;;
22665;SDS011;11499;49.486;11.104;2023-05-16T08:57:11;6.32;;;5.30;;
22665;SDS011;11499;49.486;11.104;2023-05-16T08:59:37;5.65;;;4.93;;
22665;SDS011;11499;49.486;11.104;2023-05-16T09:02:04;6.10;;;5.03;;
22665;SDS011;11499;49.486;11.104;2023-05-16T09:04:30;5.20;;;4.80;;
22665;SDS011;11499;49.486;11.104;2023-05-16T09:09:34;8.25;;;5.80;;
22665;SDS011;11499;49.486;11.104;2023-05-16T09:12:00;6.35;;;5.75;;
22665;SDS011;11499;49.486;11.104;2023-05-16T09:14:25;6.95;;;5.68;;
22665;SDS011;11499;49.486;11.104;2023-05-16T09:17:04;6.90;;;6.30;;
22665;SDS011;11499;49.486;11.104;2023-05-16T09:19:39;10.75;;;7.30;;
22665;SDS011;11499;49.486;11.104;2023-05-16T09:22:13;7.00;;;6.38;;
22665;SDS011;11499;49.486;11.104;2023-05-16T09:24:39;7.30;;;6.70;;
22665;SDS011;11499;49.486;11.104;2023-05-16T09:27:06;7.07;;;6.47;;
22665;SDS011;11499;49.486;11.104;2023-05-16T09:29:35;6.82;;;6.13;;
22665;SDS011;11499;49.486;11.104;2023-05-16T09:34:52;7.85;;;6.28;;
22665;SDS011;11499;49.486;11.104;2023-05-16T09:37:18;6.90;;;6.28;;
22665;SDS011;11499;49.486;11.104;2023-05-16T09:39:45;7.57;;;6.88;;
22665;SDS011;11499;49.486;11.104;2023-05-16T09:42:12;7.60;;;6.97;;
22665;SDS011;11499;49.486;11.104;2023-05-16T09:44:38;7.88;;;7.07;;
22665;SDS011;11499;49.486;11.104;2023-05-16T09:47:05;8.35;;;7.55;;
22665;SDS011;11499;49.486;11.104;2023-05-16T09:49:31;8.35;;;7.53;;
22665;SDS011;11499;49.486;11.104;2023-05-16T09:52:00;8.57;;;7.80;;
22665;SDS011;11499;49.486;11.104;2023-05-16T09:54:33;7.95;;;6.85;;
22665;SDS011;11499;49.486;11.104;2023-05-16T09:59:47;7.60;;;6.90;;
22665;SDS011;11499;49.486;11.104;2023-05-16T10:02:14;9.07;;;7.25;;
22665;SDS011;11499;49.486;11.104;2023-05-16T10:04:40;7.65;;;6.68;;
22665;SDS011;11499;49.486;11.104;2023-05-16T10:07:06;7.50;;;6.60;;
22665;SDS011;11499;49.486;11.104;2023-05-16T10:09:34;7.50;;;6.28;;
22665;SDS011;11499;49.486;11.104;2023-05-16T10:12:01;7.05;;;6.15;;
22665;SDS011;11499;49.486;11.104;2023-05-16T10:14:29;6.88;;;6.28;;
22665;SDS011;11499;49.486;11.104;2023-05-16T10:16:58;6.25;;;5.75;;
22665;SDS011;11499;49.486;11.104;2023-05-16T10:19:25;8.65;;;7.05;;
22665;SDS011;11499;49.486;11.104;2023-05-16T10:21:52;7.40;;;6.80;;
22665;SDS011;11499;49.486;11.104;2023-05-16T10:25:51;8.90;;;6.10;;
22665;SDS011;11499;49.486;11.104;2023-05-16T10:28:18;7.83;;;6.33;;
22665;SDS011;11499;49.486;11.104;2023-05-16T10:30:44;8.63;;;6.00;;
22665;SDS011;11499;49.486;11.104;2023-05-16T10:33:20;6.17;;;5.57;;
22665;SDS011;11499;49.486;11.104;2023-05-16T10:35:46;6.07;;;5.50;;
22665;SDS011;11499;49.486;11.104;2023-05-16T10:38:12;7.43;;;5.87;;
22665;SDS011;11499;49.486;11.104;2023-05-16T10:40:41;6.53;;;5.67;;
22665;SDS011;11499;49.486;11.104;2023-05-16T10:43:07;5.43;;;4.90;;
22665;SDS011;11499;49.486;11.104;2023-05-16T10:45:33;5.75;;;5.25;;
22665;SDS011;11499;49.486;11.104;2023-05-16T10:50:00;5.40;;;4.93;;
22665;SDS011;11499;49.486;11.104;2023-05-16T10:52:31;5.85;;;5.10;;
22665;SDS011;11499;49.486;11.104;2023-05-16T10:54:58;5.30;;;4.80;;
22665;SDS011;11499;49.486;11.104;2023-05-16T10:57:27;5.18;;;4.78;;
22665;SDS011;11499;49.486;11.104;2023-05-16T10:59:52;5.47;;;4.93;;
22665;SDS011;11499;49.486;11.104;2023-05-16T11:02:21;5.05;;;4.60;;
22665;SDS011;11499;49.486;11.104;2023-05-16T11:04:48;6.30;;;5.70;;
22665;SDS011;11499;49.486;11.104;2023-05-16T11:07:16;5.90;;;5.40;;
22665;SDS011;11499;49.486;11.104;2023-05-16T11:09:43;6.88;;;6.28;;
22665;SDS011;11499;49.486;11.104;2023-05-16T11:14:49;7.20;;;5.60;;
22665;SDS011;11499;49.486;11.104;2023-05-16T11:17:19;6.20;;;5.38;;
22665;SDS011;11499;49.486;11.104;2023-05-16T11:27:26;5.93;;;5.07;;
22665;SDS011;11499;49.486;11.104;2023-05-16T11:29:54;5.25;;;4.75;;
22665;SDS011;11499;49.486;11.104;2023-05-16T11:32:24;4.82;;;4.18;;
22665;SDS011;11499;49.486;11.104;2023-05-16T11:34:50;7.40;;;4.87;;
22665;SDS011;11499;49.486;11.104;2023-05-16T11:39:06;5.65;;;4.53;;
22665;SDS011;11499;49.486;11.104;2023-05-16T11:41:33;4.63;;;4.22;;
22665;SDS011;11499;49.486;11.104;2023-05-16T11:43:59;4.82;;;4.00;;
22665;SDS011;11499;49.486;11.104;2023-05-16T11:46:25;4.38;;;4.03;;
22665;SDS011;11499;49.486;11.104;2023-05-16T11:48:51;4.22;;;3.92;;
22665;SDS011;11499;49.486;11.104;2023-05-16T11:51:17;4.90;;;4.32;;
22665;SDS011;11499;49.486;11.104;2023-05-16T11:53:45;4.25;;;3.85;;
22665;SDS011;11499;49.486;11.104;2023-05-16T11:56:13;4.72;;;4.07;;
22665;SDS011;11499;49.486;11.104;2023-05-16T11:58:39;4.15;;;3.75;;
22665;SDS011;11499;49.486;11.104;2023-05-16T12:01:06;3.85;;;3.47;;
22665;SDS011;11499;49.486;11.104;2023-05-16T12:06:00;4.05;;;3.65;;
22665;SDS011;11499;49.486;11.104;2023-05-16T12:08:25;5.03;;;4.07;;
22665;SDS011;11499;49.486;11.104;2023-05-16T12:10:51;3.63;;;3.33;;
22665;SDS011;11499;49.486;11.104;2023-05-16T12:13:18;4.45;;;4.05;;
22665;SDS011;11499;49.486;11.104;2023-05-16T12:15:45;4.68;;;3.78;;
22665;SDS011;11499;49.486;11.104;2023-05-16T12:18:11;4.38;;;3.97;;
22665;SDS011;11499;49.486;11.104;2023-05-16T12:20:37;4.10;;;3.70;;
22665;SDS011;11499;49.486;11.104;2023-05-16T12:23:04;4.43;;;3.80;;
22665;SDS011;11499;49.486;11.104;2023-05-16T12:25:34;4.10;;;3.70;;
22665;SDS011;11499;49.486;11.104;2023-05-16T12:31:01;5.38;;;4.53;;
22665;SDS011;11499;49.486;11.104;2023-05-16T12:33:27;4.38;;;3.53;;
22665;SDS011;11499;49.486;11.104;2023-05-16T12:35:52;6.22;;;4.03;;
22665;SDS011;11499;49.486;11.104;2023-05-16T12:38:19;4.25;;;3.72;;
22665;SDS011;11499;49.486;11.104;2023-05-16T12:40:45;4.38;;;3.97;;
22665;SDS011;11499;49.486;11.104;2023-05-16T12:43:16;4.60;;;4.20;;
22665;SDS011;11499;49.486;11.104;2023-05-16T12:45:52;5.10;;;4.60;;
22665;SDS011;11499;49.486;11.104;2023-05-16T12:48:21;4.90;;;4.35;;
22665;SDS011;11499;49.486;11.104;2023-05-16T12:50:48;4.00;;;3.60;;
22665;SDS011;11499;49.486;11.104;2023-05-16T12:56:09;5.03;;;4.60;;
22665;SDS011;11499;49.486;11.104;2023-05-16T12:58:35;5.63;;;4.33;;
22665;SDS011;11499;49.486;11.104;2023-05-16T13:01:01;4.57;;;4.18;;
22665;SDS011;11499;49.486;11.104;2023-05-16T13:03:27;4.78;;;3.80;;
22665;SDS011;11499;49.486;11.104;2023-05-16T13:05:54;4.95;;;3.85;;
22665;SDS011;11499;49.486;11.104;2023-05-16T13:08:19;5.35;;;4.18;;
22665;SDS011;11499;49.486;11.104;2023-05-16T13:10:45;3.78;;;3.38;;
22665;SDS011;11499;49.486;11.104;2023-05-16T13:13:11;4.68;;;4.15;;
22665;SDS011;11499;49.486;11.104;2023-05-16T13:18:47;4.60;;;4.00;;
22665;SDS011;11499;49.486;11.104;2023-05-16T13:21:12;4.60;;;4.10;;
22665;SDS011;11499;49.486;11.104;2023-05-16T13:23:38;5.55;;;4.22;;
22665;SDS011;11499;49.486;11.104;2023-05-16T13:26:03;4.28;;;3.88;;
22665;SDS011;11499;49.486;11.104;2023-05-16T13:28:29;3.72;;;3.42;;
22665;SDS011;11499;49.486;11.104;2023-05-16T13:30:56;4.35;;;3.95;;
22665;SDS011;11499;49.486;11.104;2023-05-16T13:33:21;4.07;;;3.72;;
22665;SDS011;11499;49.486;11.104;2023-05-16T13:35:48;4.32;;;3.97;;
22665;SDS011;11499;49.486;11.104;2023-05-16T13:38:15;4.38;;;3.38;;
22665;SDS011;11499;49.486;11.104;2023-05-16T13:42:33;3.40;;;3.00;;
22665;SDS011;11499;49.486;11.104;2023-05-16T13:44:58;3.05;;;2.80;;
22665;SDS011;11499;49.486;11.104;2023-05-16T13:47:24;3.25;;;2.75;;
22665;SDS011;11499;49.486;11.104;2023-05-16T13:49:50;3.30;;;3.08;;
22665;SDS011;11499;49.486;11.104;2023-05-16T13:52:15;2.78;;;2.58;;
22665;SDS011;11499;49.486;11.104;2023-05-16T13:54:41;4.05;;;2.65;;
22665;SDS011;11499;49.486;11.104;2023-05-16T13:57:06;3.17;;;2.87;;
22665;SDS011;11499;49.486;11.104;2023-05-16T13:59:32;3.07;;;2.80;;
22665;SDS011;11499;49.486;11.104;2023-05-16T14:01:57;3.13;;;2.80;;
22665;SDS011;11499;49.486;11.104;2023-05-16T14:07:05;2.77;;;2.43;;
22665;SDS011;11499;49.486;11.104;2023-05-16T14:09:31;3.93;;;2.60;;
22665;SDS011;11499;49.486;11.104;2023-05-16T14:11:58;2.23;;;2.03;;
22665;SDS011;11499;49.486;11.104;2023-05-16T14:14:26;2.77;;;2.40;;
22665;SDS011;11499;49.486;11.104;2023-05-16T14:16:52;2.17;;;1.93;;
22665;SDS011;11499;49.486;11.104;2023-05-16T14:19:17;2.47;;;2.27;;
22665;SDS011;11499;49.486;11.104;2023-05-16T14:21:43;2.40;;;2.20;;
22665;SDS011;11499;49.486;11.104;2023-05-16T14:24:08;2.10;;;1.90;;
22665;SDS011;11499;49.486;11.104;2023-05-16T14:26:34;2.37;;;2.03;;
22665;SDS011;11499;49.486;11.104;2023-05-16T14:31:50;2.67;;;2.13;;
22665;SDS011;11499;49.486;11.104;2023-05-16T14:34:19;2.47;;;2.27;;
22665;SDS011;11499;49.486;11.104;2023-05-16T14:36:46;2.40;;;2.00;;
22665;SDS011;11499;49.486;11.104;2023-05-16T14:39:11;2.53;;;2.13;;
22665;SDS011;11499;49.486;11.104;2023-05-16T14:41:37;2.77;;;2.20;;
22665;SDS011;11499;49.486;11.104;2023-05-16T14:44:03;2.57;;;2.07;;
22665;SDS011;11499;49.486;11.104;2023-05-16T14:46:28;2.30;;;2.10;;
22665;SDS011;11499;49.486;11.104;2023-05-16T14:48:54;2.83;;;2.33;;
22665;SDS011;11499;49.486;11.104;2023-05-16T14:51:19;3.33;;;2.37;;
22665;SDS011;11499;49.486;11.104;2023-05-16T14:53:45;2.30;;;2.10;;
22665;SDS011;11499;49.486;11.104;2023-05-16T14:58:05;2.53;;;2.03;;
22665;SDS011;11499;49.486;11.104;2023-05-16T15:00:31;2.87;;;2.27;;
22665;SDS011;11499;49.486;11.104;2023-05-16T15:02:56;3.20;;;2.47;;
22665;SDS011;11499;49.486;11.104;2023-05-16T15:05:22;3.10;;;2.03;;
22665;SDS011;11499;49.486;11.104;2023-05-16T15:07:49;2.90;;;2.27;;
22665;SDS011;11499;49.486;11.104;2023-05-16T15:10:15;5.60;;;2.37;;
22665;SDS011;11499;49.486;11.104;2023-05-16T15:12:41;2.50;;;2.30;;
22665;SDS011;11499;49.486;11.104;2023-05-16T15:15:07;3.17;;;2.07;;
22665;SDS011;11499;49.486;11.104;2023-05-16T15:17:37;2.97;;;2.07;;
22665;SDS011;11499;49.486;11.104;2023-05-16T15:20:04;2.37;;;2.17;;
22665;SDS011;11499;49.486;11.104;2023-05-16T15:24:21;2.70;;;2.47;;
22665;SDS011;11499;49.486;11.104;2023-05-16T15:26:46;2.30;;;2.10;;
22665;SDS011;11499;49.486;11.104;2023-05-16T15:29:13;2.43;;;1.80;;
22665;SDS011;11499;49.486;11.104;2023-05-16T15:31:39;1.90;;;1.80;;
22665;SDS011;11499;49.486;11.104;2023-05-16T15:34:04;3.40;;;1.90;;
22665;SDS011;11499;49.486;11.104;2023-05-16T15:36:31;3.67;;;1.80;;
22665;SDS011;11499;49.486;11.104;2023-05-16T15:38:57;2.43;;;1.90;;
22665;SDS011;11499;49.486;11.104;2023-05-16T15:41:22;2.37;;;2.00;;
22665;SDS011;11499;49.486;11.104;2023-05-16T15:43:48;2.03;;;1.67;;
22665;SDS011;11499;49.486;11.104;2023-05-16T15:46:13;2.47;;;1.90;;
22665;SDS011;11499;49.486;11.104;2023-05-16T15:50:08;2.30;;;2.10;;
22665;SDS011;11499;49.486;11.104;2023-05-16T15:52:34;3.23;;;1.80;;
22665;SDS011;11499;49.486;11.104;2023-05-16T15:55:00;2.33;;;1.93;;
22665;SDS011;11499;49.486;11.104;2023-05-16T15:57:27;2.13;;;1.77;;
22665;SDS011;11499;49.486;11.104;2023-05-16T15:59:54;2.20;;;2.00;;
22665;SDS011;11499;49.486;11.104;2023-05-16T16:02:19;3.63;;;2.13;;
22665;SDS011;11499;49.486;11.104;2023-05-16T16:04:44;2.03;;;1.83;;
22665;SDS011;11499;49.486;11.104;2023-05-16T16:07:10;1.83;;;1.70;;
22665;SDS011;11499;49.486;11.104;2023-05-16T16:09:36;2.03;;;1.80;;
22665;SDS011;11499;49.486;11.104;2023-05-16T16:12:01;4.17;;;1.90;;
22665;SDS011;11499;49.486;11.104;2023-05-16T16:17:15;2.13;;;1.77;;
22665;SDS011;11499;49.486;11.104;2023-05-16T16:19:40;3.00;;;1.90;;
22665;SDS011;11499;49.486;11.104;2023-05-16T16:22:06;2.87;;;1.90;;
22665;SDS011;11499;49.486;11.104;2023-05-16T16:24:32;2.03;;;1.80;;
22665;SDS011;11499;49.486;11.104;2023-05-16T16:26:58;2.30;;;2.00;;
22665;SDS011;11499;49.486;11.104;2023-05-16T16:29:23;2.97;;;1.80;;
22665;SDS011;11499;49.486;11.104;2023-05-16T16:31:50;2.07;;;1.60;;